Time;durP1;ratioP1;P1;durP2;ratioP2;P2;SDS_P1;SDS_P2;PMS_P1;PMS_P2;Temp;Humidity;BMP_temperature;BMP_pressure;BME280_temperature;BME280_humidity;BME280_pressure;Samples;Min_cycle;Max_cycle;Signal;HPM_P1;HPM_P2
2023/07/12 00:00:47;;;;;;;12.18;6.35;;;;;;;23.83;100.00;95011.06;5054258;28;20044;-70
2023/07/12 00:03:14;;;;;;;20.77;7.13;;;;;;;23.70;100.00;95003.31;5059990;28;20021;-70
2023/07/12 00:05:39;;;;;;;15.55;6.10;;;;;;;23.65;100.00;94993.28;5054482;28;20040;-70
2023/07/12 00:08:05;;;;;;;16.92;7.32;;;;;;;23.64;100.00;94978.22;5062630;28;20028;-70
2023/07/12 00:10:34;;;;;;;18.75;7.68;;;;;;;23.74;100.00;94956.09;5068429;28;20028;-70
2023/07/12 00:12:59;;;;;;;23.45;6.93;;;;;;;23.74;100.00;94959.56;5048933;28;20029;-69
2023/07/12 00:15:28;;;;;;;18.67;6.95;;;;;;;23.72;100.00;94952.84;5054612;28;20035;-70
2023/07/12 00:17:55;;;;;;;20.92;7.32;;;;;;;23.69;100.00;94946.06;5054849;28;20108;-70
2023/07/12 00:20:35;;;;;;;18.45;7.20;;;;;;;23.60;100.00;94939.47;5054464;28;20016;-70
2023/07/12 00:23:01;;;;;;;18.20;6.55;;;;;;;23.57;100.00;94919.28;5057457;28;20028;-70
2023/07/12 00:25:32;;;;;;;17.27;6.32;;;;;;;23.60;100.00;94920.66;5052013;28;20025;-70
2023/07/12 00:27:58;;;;;;;18.92;7.40;;;;;;;23.61;100.00;94903.50;5056319;28;20367;-72
2023/07/12 00:30:27;;;;;;;19.15;6.95;;;;;;;23.58;100.00;94871.75;5054272;28;20029;-70
2023/07/12 00:32:55;;;;;;;20.90;7.15;;;;;;;23.55;100.00;94829.25;5054523;28;20016;-70
2023/07/12 00:35:23;;;;;;;16.77;7.80;;;;;;;23.37;100.00;94822.25;5056026;28;20047;-70
2023/07/12 00:37:52;;;;;;;19.88;6.80;;;;;;;23.34;100.00;94780.59;5058099;28;20033;-70
2023/07/12 00:41:07;;;;;;;16.65;8.05;;;;;;;23.23;100.00;94746.56;5051358;28;20051;-70
2023/07/12 00:43:39;;;;;;;18.40;8.13;;;;;;;23.03;100.00;94678.06;5049935;28;20047;-70
2023/07/12 00:46:11;;;;;;;19.67;7.47;;;;;;;22.88;100.00;94687.53;5057283;28;20036;-70
2023/07/12 00:48:36;;;;;;;13.93;7.07;;;;;;;22.72;100.00;94643.53;5055957;28;20043;-70
2023/07/12 00:51:26;;;;;;;17.20;7.43;;;;;;;22.69;100.00;94611.84;5055575;28;20036;-70
2023/07/12 00:53:52;;;;;;;26.00;7.68;;;;;;;22.73;100.00;94588.03;5049627;28;20561;-70
2023/07/12 00:56:17;;;;;;;17.58;7.15;;;;;;;22.74;100.00;94587.75;5052438;28;20090;-70
2023/07/12 00:58:46;;;;;;;19.40;7.43;;;;;;;22.78;100.00;94598.81;5050933;28;20039;-69
2023/07/12 01:01:13;;;;;;;20.42;7.10;;;;;;;22.80;100.00;94601.28;5051998;28;20702;-70
2023/07/12 01:03:40;;;;;;;21.27;7.55;;;;;;;22.77;100.00;94599.88;5056879;28;20033;-70
2023/07/12 01:06:09;;;;;;;16.73;6.35;;;;;;;22.74;100.00;94595.81;5056440;28;20028;-70
2023/07/12 01:08:35;;;;;;;17.85;7.43;;;;;;;22.64;100.00;94578.75;5054562;28;20020;-70
2023/07/12 01:11:03;;;;;;;18.13;7.70;;;;;;;22.63;100.00;94556.50;5059142;28;20440;-70
2023/07/12 01:13:31;;;;;;;25.92;7.35;;;;;;;22.70;100.00;94567.06;5061533;28;20531;-70
2023/07/12 01:16:00;;;;;;;16.58;6.57;;;;;;;22.69;100.00;94581.53;5059888;28;20151;-70
2023/07/12 01:18:25;;;;;;;22.33;7.30;;;;;;;22.60;100.00;94589.97;5057231;28;20033;-70
2023/07/12 01:21:04;;;;;;;18.70;7.40;;;;;;;22.44;100.00;94574.69;5056799;28;20489;-70
2023/07/12 01:23:30;;;;;;;23.30;7.32;;;;;;;;;;5053133;28;20138;-70
2023/07/12 01:26:18;;;;;;;13.65;6.80;;;;;;;22.48;100.00;94538.31;5052548;28;20025;-70
2023/07/12 01:28:47;;;;;;;24.05;7.85;;;;;;;22.61;100.00;94537.97;5057764;28;20017;-70
2023/07/12 01:31:13;;;;;;;19.20;7.30;;;;;;;22.68;100.00;94539.69;5053248;28;20027;-70
2023/07/12 01:33:39;;;;;;;20.25;7.35;;;;;;;22.47;100.00;94552.78;5051965;28;20025;-69
2023/07/12 01:36:05;;;;;;;25.55;7.25;;;;;;;22.37;100.00;94568.66;5056131;28;20040;-69
2023/07/12 01:38:30;;;;;;;15.73;7.03;;;;;;;22.24;100.00;94573.31;5055587;28;20031;-69
2023/07/12 01:40:56;;;;;;;19.58;8.38;;;;;;;22.19;100.00;94557.13;5057218;28;20050;-70
2023/07/12 01:43:22;;;;;;;22.25;8.15;;;;;;;22.20;100.00;94548.03;5051578;28;20441;-69
2023/07/12 01:45:47;;;;;;;23.95;7.68;;;;;;;22.25;100.00;94540.09;5048503;28;20454;-69
2023/07/12 01:48:13;;;;;;;19.05;8.05;;;;;;;22.32;100.00;94540.72;5057297;28;20103;-69
2023/07/12 01:50:38;;;;;;;17.85;7.07;;;;;;;22.32;100.00;94546.09;5054324;28;20029;-69
2023/07/12 01:53:04;;;;;;;22.45;7.47;;;;;;;22.44;100.00;94564.78;5049871;28;20075;-70
2023/07/12 01:55:29;;;;;;;22.85;7.45;;;;;;;22.51;100.00;94570.00;5054781;28;20053;-69
2023/07/12 01:57:54;;;;;;;23.73;8.05;;;;;;;22.51;100.00;94570.00;5049140;28;20063;-70
2023/07/12 02:00:20;;;;;;;21.83;8.63;;;;;;;22.54;100.00;94596.31;5036921;28;20024;-70
2023/07/12 02:02:45;;;;;;;18.35;7.70;;;;;;;22.58;100.00;94610.88;5050991;28;20128;-69
2023/07/12 02:05:10;;;;;;;22.50;7.40;;;;;;;22.65;100.00;94647.44;5052849;28;20021;-70
2023/07/12 02:07:36;;;;;;;19.35;6.93;;;;;;;22.73;100.00;94665.81;5055718;28;20016;-70
2023/07/12 02:10:13;;;;;;;22.23;7.85;;;;;;;22.76;100.00;94678.75;5052958;28;20088;-69
2023/07/12 02:12:39;;;;;;;25.75;7.63;;;;;;;22.79;100.00;94688.19;5053547;28;20031;-70
2023/07/12 02:15:09;;;;;;;20.60;8.27;;;;;;;22.79;100.00;94693.56;5054832;28;20439;-70
2023/07/12 02:17:53;;;;;;;15.90;8.50;;;;;;;22.80;100.00;94698.66;5051126;28;20029;-70
2023/07/12 02:20:18;;;;;;;21.58;7.55;;;;;;;22.73;100.00;94701.50;5053124;28;20112;-70
2023/07/12 02:22:45;;;;;;;19.10;7.82;;;;;;;22.68;100.00;94688.00;5055873;28;20067;-69
2023/07/12 02:25:12;;;;;;;14.38;7.53;;;;;;;22.69;100.00;94686.16;5053608;28;20393;-69
2023/07/12 02:27:38;;;;;;;21.80;8.20;;;;;;;22.67;100.00;94710.50;5054909;28;20017;-70
2023/07/12 02:30:06;;;;;;;18.10;7.55;;;;;;;22.61;100.00;94706.94;5053824;28;20024;-69
2023/07/12 02:32:32;;;;;;;17.52;7.53;;;;;;;22.59;100.00;94702.88;5041292;28;20022;-69
2023/07/12 02:34:57;;;;;;;19.73;6.13;;;;;;;22.68;100.00;94730.91;5054226;28;20478;-69
2023/07/12 02:37:23;;;;;;;22.85;6.93;;;;;;;22.73;100.00;94773.91;5059349;28;20028;-69
2023/07/12 02:39:48;;;;;;;22.38;7.03;;;;;;;22.83;100.00;94810.84;5052452;28;20062;-69
2023/07/12 02:42:14;;;;;;;23.58;7.00;;;;;;;22.87;100.00;94817.34;5051113;28;20478;-69
2023/07/12 02:44:40;;;;;;;18.25;5.93;;;;;;;22.83;100.00;94832.31;5053491;28;20025;-69
2023/07/12 02:47:07;;;;;;;15.52;6.82;;;;;;;22.81;100.00;94855.88;5054751;28;20028;-69
2023/07/12 02:49:33;;;;;;;22.13;6.60;;;;;;;22.80;100.00;94875.72;5050347;28;20033;-70
2023/07/12 02:51:58;;;;;;;18.42;7.05;;;;;;;22.87;100.00;94881.75;5058395;28;20033;-69
2023/07/12 02:54:23;;;;;;;19.92;6.10;;;;;;;22.83;100.00;94875.25;5054563;28;20048;-69
2023/07/12 02:56:49;;;;;;;23.52;7.10;;;;;;;22.82;100.00;94884.34;5055326;28;20036;-69
2023/07/12 02:59:14;;;;;;;28.50;7.00;;;;;;;22.79;100.00;94889.41;5055566;28;20024;-69
2023/07/12 03:01:41;;;;;;;17.67;6.82;;;;;;;22.75;100.00;94930.09;5060334;28;20049;-69
2023/07/12 03:04:07;;;;;;;19.98;6.60;;;;;;;22.78;100.00;94933.38;5056170;28;20465;-69
2023/07/12 03:06:32;;;;;;;18.75;6.45;;;;;;;22.77;100.00;94921.81;5054860;28;20124;-69
2023/07/12 03:08:57;;;;;;;15.82;6.95;;;;;;;22.75;100.00;94924.72;5056219;28;20029;-69
2023/07/12 03:11:23;;;;;;;14.75;5.75;;;;;;;22.79;100.00;94929.66;5055649;28;20437;-69
2023/07/12 03:13:51;;;;;;;18.33;6.18;;;;;;;22.75;100.00;94929.28;5055459;28;20027;-69
2023/07/12 03:16:17;;;;;;;22.02;6.65;;;;;;;22.73;100.00;94950.19;5030561;28;20025;-69
2023/07/12 03:18:43;;;;;;;22.00;6.30;;;;;;;22.73;100.00;94936.75;5053306;28;20474;-69
2023/07/12 03:21:10;;;;;;;23.25;6.85;;;;;;;22.66;100.00;94893.97;5054457;28;20497;-69
2023/07/12 03:23:35;;;;;;;18.17;7.97;;;;;;;22.61;100.00;94897.34;5056604;28;20025;-69
2023/07/12 03:26:01;;;;;;;22.50;7.40;;;;;;;22.53;100.00;94873.59;5057656;28;20504;-69
2023/07/12 03:28:27;;;;;;;14.95;6.60;;;;;;;22.44;100.00;94822.19;5057804;28;20021;-69
2023/07/12 03:31:03;;;;;;;16.45;7.20;;;;;;;22.44;100.00;94787.31;5060264;28;20036;-69
2023/07/12 03:33:29;;;;;;;23.33;7.65;;;;;;;22.53;100.00;94701.13;5054823;28;20623;-69
2023/07/12 03:35:55;;;;;;;17.98;6.15;;;;;;;22.51;100.00;94639.72;5071162;28;20024;-69
2023/07/12 03:38:24;;;;;;;21.35;7.60;;;;;;;22.41;100.00;94618.88;5055073;28;20025;-69
2023/07/12 03:40:51;;;;;;;17.77;6.95;;;;;;;22.33;100.00;94612.03;5057804;28;20116;-69
2023/07/12 03:43:16;;;;;;;21.90;7.43;;;;;;;22.22;100.00;94593.34;5061890;28;20604;-69
2023/07/12 03:45:45;;;;;;;21.38;7.45;;;;;;;22.16;100.00;94585.22;5058694;28;20048;-69
2023/07/12 03:48:10;;;;;;;21.27;7.40;;;;;;;22.30;100.00;94609.03;5063493;28;20052;-69
2023/07/12 03:50:43;;;;;;;23.95;6.72;;;;;;;22.49;100.00;94684.75;5058090;28;20016;-69
2023/07/12 03:53:08;;;;;;;27.25;7.15;;;;;;;22.57;100.00;94724.56;5057884;28;20435;-70
2023/07/12 03:55:39;;;;;;;24.38;7.20;;;;;;;22.42;100.00;94737.66;5056906;28;20131;-69
2023/07/12 03:58:05;;;;;;;20.20;7.00;;;;;;;22.31;100.00;94752.72;5061238;28;20154;-69
2023/07/12 04:00:30;;;;;;;24.83;7.22;;;;;;;22.27;100.00;94752.41;5058162;28;20049;-68
2023/07/12 04:02:56;;;;;;;20.42;7.03;;;;;;;22.28;100.00;94747.84;5059207;28;20127;-69
2023/07/12 04:05:22;;;;;;;24.17;7.35;;;;;;;22.21;100.00;94747.19;5058895;28;20025;-69
2023/07/12 04:07:47;;;;;;;16.75;6.20;;;;;;;22.19;100.00;94734.00;5058348;28;20045;-69
2023/07/12 04:10:13;;;;;;;16.65;6.35;;;;;;;22.19;100.00;94704.53;5058553;28;20025;-69
2023/07/12 04:12:38;;;;;;;15.75;7.40;;;;;;;22.25;100.00;94666.06;5058421;28;20032;-69
2023/07/12 04:15:04;;;;;;;16.38;6.45;;;;;;;22.33;100.00;94652.25;5064164;28;20543;-69
2023/07/12 04:17:30;;;;;;;27.33;7.53;;;;;;;22.32;100.00;94674.75;5055873;28;20037;-69
2023/07/12 04:19:55;;;;;;;16.27;7.38;;;;;;;22.32;100.00;94706.09;5057391;28;20078;-69
2023/07/12 04:22:20;;;;;;;24.00;7.82;;;;;;;22.28;100.00;94726.41;5055032;28;20385;-69
2023/07/12 04:24:53;;;;;;;16.13;6.85;;;;;;;22.24;100.00;94734.13;5059288;28;20585;-69
2023/07/12 04:27:19;;;;;;;20.88;7.22;;;;;;;22.25;100.00;94741.13;5056722;28;20029;-69
2023/07/12 04:29:45;;;;;;;26.65;7.57;;;;;;;22.24;100.00;94720.72;5057105;28;20043;-69
2023/07/12 04:32:11;;;;;;;15.45;6.72;;;;;;;22.26;100.00;94725.84;5053845;28;20112;-69
2023/07/12 04:34:36;;;;;;;16.95;6.65;;;;;;;22.19;100.00;94739.38;5056209;28;20048;-69
2023/07/12 04:37:02;;;;;;;18.80;6.53;;;;;;;22.17;100.00;94720.03;5057650;28;20405;-69
2023/07/12 04:39:28;;;;;;;26.70;7.05;;;;;;;22.17;100.00;94715.50;5053714;28;20021;-69
2023/07/12 04:41:53;;;;;;;20.80;6.68;;;;;;;22.17;100.00;94702.09;5058646;28;20567;-69
2023/07/12 04:44:18;;;;;;;21.10;7.40;;;;;;;22.10;100.00;94697.94;5057163;28;20027;-69
2023/07/12 04:46:44;;;;;;;21.48;6.80;;;;;;;22.14;100.00;94693.72;5057891;28;20163;-69
2023/07/12 04:49:09;;;;;;;21.92;7.40;;;;;;;22.08;100.00;94683.97;5058233;28;20063;-69
2023/07/12 04:51:37;;;;;;;20.73;6.72;;;;;;;22.06;100.00;94681.50;5052964;28;20056;-69
2023/07/12 04:54:03;;;;;;;23.90;7.63;;;;;;;22.05;100.00;94685.25;5054936;28;20068;-69
2023/07/12 04:56:29;;;;;;;25.08;7.38;;;;;;;22.05;100.00;94687.94;5058420;28;20040;-69
2023/07/12 04:58:55;;;;;;;20.02;6.80;;;;;;;22.06;100.00;94684.19;5060421;28;20445;-69
2023/07/12 05:01:21;;;;;;;20.48;6.88;;;;;;;22.08;100.00;94678.59;5057272;28;20135;-69
2023/07/12 05:03:47;;;;;;;22.15;6.97;;;;;;;22.03;100.00;94672.09;5057460;28;20564;-69
2023/07/12 05:06:13;;;;;;;15.32;7.30;;;;;;;22.06;100.00;94678.03;5058196;28;20025;-69
2023/07/12 05:08:39;;;;;;;19.65;6.97;;;;;;;22.07;100.00;94682.34;5057349;28;20561;-69
2023/07/12 05:11:04;;;;;;;25.05;7.10;;;;;;;22.00;100.00;94669.06;5059820;28;20083;-68
2023/07/12 05:13:30;;;;;;;16.95;7.32;;;;;;;21.90;100.00;94661.66;5055140;28;20043;-69
2023/07/12 05:15:56;;;;;;;24.65;8.75;;;;;;;21.79;100.00;94643.78;5051003;28;20111;-69
2023/07/12 05:18:22;;;;;;;23.58;10.65;;;;;;;21.77;100.00;94619.06;5061118;28;20431;-69
2023/07/12 05:20:52;;;;;;;29.23;7.20;;;;;;;21.83;100.00;94599.38;5058300;28;20327;-68
2023/07/12 05:23:18;;;;;;;21.70;7.35;;;;;;;21.84;100.00;94592.97;5056577;28;20059;-68
2023/07/12 05:25:54;;;;;;;17.08;7.10;;;;;;;21.80;100.00;94583.78;5059205;28;20112;-69
2023/07/12 05:28:20;;;;;;;18.17;7.38;;;;;;;21.89;100.00;94585.03;5046015;28;20413;-68
2023/07/12 05:30:46;;;;;;;19.50;7.38;;;;;;;21.96;100.00;94585.66;5056332;28;20079;-69
2023/07/12 05:33:12;;;;;;;16.60;7.63;;;;;;;22.03;100.00;94580.16;5057381;28;20056;-69
2023/07/12 05:35:38;;;;;;;12.23;6.63;;;;;;;22.19;100.00;94589.28;5051843;28;20563;-68
2023/07/12 05:38:07;;;;;;;17.63;6.97;;;;;;;22.36;100.00;94588.50;5056004;28;20064;-69
2023/07/12 05:40:34;;;;;;;21.45;7.50;;;;;;;22.46;100.00;94602.06;5053685;28;20056;-69
2023/07/12 05:42:59;;;;;;;15.75;7.05;;;;;;;22.52;100.00;94609.16;5055931;28;20024;-69
2023/07/12 05:45:24;;;;;;;16.83;7.40;;;;;;;22.48;100.00;94618.75;5055382;28;20063;-69
2023/07/12 05:47:50;;;;;;;21.75;7.80;;;;;;;22.42;100.00;94627.72;5057020;28;20033;-69
2023/07/12 05:50:18;;;;;;;29.27;8.45;;;;;;;22.49;100.00;94614.19;5056465;28;20611;-69
2023/07/12 05:52:44;;;;;;;18.35;6.90;;;;;;;22.57;100.00;94630.69;5056458;28;20433;-69
2023/07/12 05:55:17;;;;;;;24.08;8.70;;;;;;;22.64;100.00;94657.34;5055170;28;20099;-69
2023/07/12 05:57:44;;;;;;;17.27;8.02;;;;;;;22.61;100.00;94658.66;5055858;28;20043;-69
2023/07/12 06:00:10;;;;;;;23.98;7.28;;;;;;;22.57;100.00;94646.78;5048934;28;20040;-69
2023/07/12 06:02:37;;;;;;;22.80;7.68;;;;;;;22.60;100.00;94645.50;5056408;28;20033;-69
2023/07/12 06:05:04;;;;;;;21.20;7.82;;;;;;;22.74;100.00;94632.56;5057311;28;20028;-68
2023/07/12 06:07:29;;;;;;;12.10;5.95;;;;;;;22.89;100.00;94640.03;5056326;28;20051;-68
2023/07/12 06:09:55;;;;;;;18.17;6.63;;;;;;;22.97;100.00;94665.66;5056460;28;20017;-68
2023/07/12 06:12:20;;;;;;;15.35;6.60;;;;;;;23.06;100.00;94684.84;5056392;28;20021;-68
2023/07/12 06:14:45;;;;;;;18.70;7.20;;;;;;;23.10;100.00;94694.84;5054354;28;20044;-68
2023/07/12 06:17:11;;;;;;;21.58;7.43;;;;;;;23.10;100.00;94699.38;5054160;28;20040;-69
2023/07/12 06:19:36;;;;;;;20.40;8.07;;;;;;;23.14;100.00;94701.34;5054043;28;20115;-69
2023/07/12 06:22:02;;;;;;;19.35;7.45;;;;;;;23.18;100.00;94710.53;5054950;28;20082;-69
2023/07/12 06:24:27;;;;;;;17.60;7.25;;;;;;;23.27;100.00;94715.50;5053292;28;20044;-69
2023/07/12 06:26:52;;;;;;;18.48;7.68;;;;;;;23.34;100.00;94708.09;5056010;28;20136;-69
2023/07/12 06:29:18;;;;;;;17.45;7.03;;;;;;;23.56;100.00;94710.03;5055783;28;20033;-69
2023/07/12 06:31:43;;;;;;;22.55;6.75;;;;;;;23.71;100.00;94737.06;5054025;28;20063;-69
2023/07/12 06:34:09;;;;;;;29.23;8.02;;;;;;;23.81;100.00;94741.75;5054510;28;20534;-69
2023/07/12 06:36:35;;;;;;;37.50;7.75;;;;;;;23.91;100.00;94751.03;5054418;28;20587;-69
2023/07/12 06:39:01;;;;;;;21.17;7.72;;;;;;;23.92;100.00;94761.53;5056726;28;20115;-69
2023/07/12 06:41:26;;;;;;;17.95;6.93;;;;;;;24.01;100.00;94760.06;5058410;28;20058;-69
2023/07/12 06:43:52;;;;;;;15.75;6.47;;;;;;;24.12;100.00;94761.00;5056905;28;20020;-68
2023/07/12 06:46:17;;;;;;;20.85;6.70;;;;;;;24.30;100.00;94762.56;5055726;28;20024;-68
2023/07/12 06:48:43;;;;;;;22.33;6.93;;;;;;;24.53;100.00;94776.78;5055744;28;20087;-69
2023/07/12 06:51:09;;;;;;;15.52;6.95;;;;;;;24.60;100.00;94798.91;5054777;28;20096;-68
2023/07/12 06:53:35;;;;;;;15.10;6.80;;;;;;;24.71;100.00;94807.13;5051413;28;20025;-68
2023/07/12 06:56:00;;;;;;;17.95;6.88;;;;;;;24.96;100.00;94830.78;5056575;28;20052;-69
2023/07/12 06:58:26;;;;;;;23.27;7.47;;;;;;;24.97;100.00;94818.16;5059526;28;20029;-69
2023/07/12 07:00:51;;;;;;;27.40;8.45;;;;;;;24.97;100.00;94823.53;5060349;28;20025;-69
2023/07/12 07:03:17;;;;;;;19.73;7.05;;;;;;;24.97;100.00;94834.31;5063134;28;20055;-69
2023/07/12 07:05:45;;;;;;;17.88;6.55;;;;;;;25.09;100.00;94828.78;5058657;28;20580;-68
2023/07/12 07:08:12;;;;;;;18.95;7.03;;;;;;;25.31;100.00;94845.69;5055015;28;20025;-68
2023/07/12 07:10:37;;;;;;;14.35;7.13;;;;;;;25.54;100.00;94862.59;5056495;28;20035;-68
2023/07/12 07:13:03;;;;;;;17.65;7.03;;;;;;;25.46;100.00;94871.94;5049633;28;20121;-68
2023/07/12 07:15:28;;;;;;;19.55;7.28;;;;;;;25.57;100.00;94875.56;5059413;28;20032;-68
2023/07/12 07:17:54;;;;;;;16.63;6.82;;;;;;;25.60;100.00;94875.03;5060463;28;20035;-69
2023/07/12 07:20:21;;;;;;;21.30;7.07;;;;;;;25.66;100.00;94889.38;5058466;28;20032;-68
2023/07/12 07:22:46;;;;;;;20.13;7.00;;;;;;;25.57;100.00;94888.22;5058385;28;20025;-68
2023/07/12 07:25:12;;;;;;;21.50;8.45;;;;;;;25.48;100.00;94878.97;5063069;28;20038;-69
2023/07/12 07:27:37;;;;;;;22.27;7.45;;;;;;;25.48;100.00;94868.19;5058147;28;20032;-68
2023/07/12 07:30:03;;;;;;;20.73;7.13;;;;;;;25.51;100.00;94873.91;5059341;28;20024;-69
2023/07/12 07:32:28;;;;;;;27.08;8.60;;;;;;;25.63;100.00;94876.41;5062935;28;20043;-68
2023/07/12 07:34:54;;;;;;;20.63;7.80;;;;;;;26.00;100.00;94872.91;5056639;28;20626;-68
2023/07/12 07:37:20;;;;;;;21.88;7.15;;;;;;;26.58;100.00;94885.63;5059009;28;20138;-70
2023/07/12 07:39:45;;;;;;;19.45;7.35;;;;;;;26.79;100.00;94912.72;5053667;28;20551;-68
2023/07/12 07:42:11;;;;;;;25.17;6.80;;;;;;;27.03;100.00;94931.19;5058089;28;20029;-67
2023/07/12 07:44:37;;;;;;;18.27;7.03;;;;;;;27.38;100.00;94948.59;5058833;28;20020;-69
2023/07/12 07:47:03;;;;;;;23.25;6.95;;;;;;;27.30;100.00;94957.19;5059529;28;20040;-68
2023/07/12 07:49:29;;;;;;;21.50;7.60;;;;;;;27.41;100.00;94956.16;5055801;28;20048;-69
2023/07/12 07:51:54;;;;;;;15.10;7.38;;;;;;;27.47;100.00;94946.19;5058214;28;20626;-68
2023/07/12 07:54:19;;;;;;;19.45;6.85;;;;;;;27.29;100.00;94948.28;5057850;28;20037;-67
2023/07/12 07:56:45;;;;;;;18.55;6.85;;;;;;;27.38;100.00;94953.16;5058999;28;20025;-71
2023/07/12 07:59:12;;;;;;;22.42;7.75;;;;;;;27.62;100.00;94968.91;5055943;28;20101;-69
2023/07/12 08:01:37;;;;;;;22.25;6.85;;;;;;;27.84;100.00;94968.69;5058958;28;20036;-69
2023/07/12 08:04:04;;;;;;;19.90;7.47;;;;;;;27.94;100.00;94978.69;5064194;28;20032;-69
2023/07/12 08:06:29;;;;;;;18.67;6.75;;;;;;;27.77;100.00;94995.97;5058740;28;20040;-69
2023/07/12 08:08:54;;;;;;;20.95;7.32;;;;;;;27.94;100.00;95017.34;5056838;28;20021;-68
2023/07/12 08:11:20;;;;;;;18.75;6.70;;;;;;;27.89;100.00;95047.09;5055894;28;20553;-67
2023/07/12 08:13:45;;;;;;;22.42;7.18;;;;;;;28.19;100.00;95050.16;5057347;28;20028;-68
2023/07/12 08:16:11;;;;;;;14.68;6.38;;;;;;;28.49;100.00;95052.06;5056056;28;20087;-68
2023/07/12 08:18:38;;;;;;;20.08;7.43;;;;;;;29.07;100.00;95069.88;5056280;28;20092;-69
2023/07/12 08:21:03;;;;;;;16.33;6.95;;;;;;;29.08;100.00;95093.16;5058141;28;20074;-69
2023/07/12 08:23:29;;;;;;;18.70;7.22;;;;;;;29.14;100.00;95083.09;5056813;28;20033;-68
2023/07/12 08:25:55;;;;;;;20.92;7.20;;;;;;;29.02;100.00;95105.06;5050368;28;20060;-68
2023/07/12 08:28:20;;;;;;;19.67;6.88;;;;;;;29.13;100.00;95117.53;5059989;28;20084;-68
2023/07/12 08:30:46;;;;;;;13.07;6.55;;;;;;;29.01;100.00;95117.84;5054311;28;20021;-69
2023/07/12 08:33:13;;;;;;;18.02;6.57;;;;;;;28.74;100.00;95116.22;5056982;28;20021;-69
2023/07/12 08:35:38;;;;;;;25.70;6.68;;;;;;;28.97;100.00;95140.31;5054544;28;20043;-69
2023/07/12 08:38:04;;;;;;;21.83;7.28;;;;;;;29.00;100.00;95150.59;5058455;28;20032;-69
2023/07/12 08:40:29;;;;;;;21.88;6.93;;;;;;;29.52;100.00;95173.03;5057486;28;20108;-69
2023/07/12 08:42:55;;;;;;;16.98;6.75;;;;;;;29.80;100.00;95183.53;5062091;28;20025;-69
2023/07/12 08:45:23;;;;;;;19.85;7.05;;;;;;;30.02;100.00;95200.28;5057347;28;20078;-69
2023/07/12 08:47:52;;;;;;;19.67;7.15;;;;;;;30.30;100.00;95208.81;5058426;28;20027;-69
2023/07/12 08:50:17;;;;;;;19.80;6.07;;;;;;;30.26;100.00;95217.78;5054185;28;20043;-69
2023/07/12 08:52:44;;;;;;;16.60;7.10;;;;;;;30.07;100.00;95215.72;5057787;28;20025;-69
2023/07/12 08:55:19;;;;;;;19.17;6.40;;;;;;;30.02;100.00;95216.56;5056531;28;20053;-69
2023/07/12 08:57:47;;;;;;;;;;;;;;;30.02;100.00;95237.44;5053775;28;20409;-69
2023/07/12 09:00:20;;;;;;;15.77;6.10;;;;;;;30.35;100.00;95243.28;5056869;28;19908;-69
2023/07/12 09:02:46;;;;;;;21.48;6.10;;;;;;;30.68;100.00;95264.59;5057516;28;20517;-68
2023/07/12 09:05:15;;;;;;;24.20;7.55;;;;;;;30.91;100.00;95273.13;5049372;28;20417;-69
2023/07/12 09:08:14;;;;;;;18.75;6.10;;;;;;;31.04;100.00;95290.69;5057148;28;20032;-69
2023/07/12 09:10:56;;;;;;;15.60;6.68;;;;;;;30.99;100.00;95305.94;5045996;28;20036;-69
2023/07/12 09:13:31;;;;;;;17.42;7.03;;;;;;;30.90;100.00;95317.69;5054778;28;20017;-69
2023/07/12 09:15:56;;;;;;;22.85;6.82;;;;;;;30.56;100.00;95325.44;5057791;28;20027;-69
2023/07/12 09:18:37;;;;;;;15.38;6.57;;;;;;;30.98;100.00;95345.09;5056542;28;20048;-69
2023/07/12 09:21:15;;;;;;;24.70;6.43;;;;;;;30.14;100.00;95342.97;5056516;28;20029;-69
2023/07/12 09:23:44;;;;;;;20.67;7.03;;;;;;;30.21;100.00;95354.34;5056335;28;20021;-69
2023/07/12 09:26:17;;;;;;;17.85;6.57;;;;;;;30.45;100.00;95376.25;5061645;28;20027;-69
2023/07/12 09:28:42;;;;;;;22.60;7.72;;;;;;;30.34;100.00;95361.09;5056692;28;20482;-69
2023/07/12 09:31:13;;;;;;;19.40;7.15;;;;;;;30.43;100.00;95367.56;5064308;28;20382;-69
2023/07/12 09:33:38;;;;;;;20.23;6.88;;;;;;;30.34;100.00;95363.81;5055336;28;20116;-69
2023/07/12 09:36:05;;;;;;;22.10;6.47;;;;;;;30.84;100.00;95377.50;5058016;28;20108;-69
2023/07/12 09:38:36;;;;;;;21.52;6.25;;;;;;;30.84;100.00;95374.78;5049210;28;20025;-69
2023/07/12 09:41:09;;;;;;;20.40;6.78;;;;;;;30.93;100.00;95357.88;5056280;28;20029;-69
2023/07/12 09:43:38;;;;;;;22.67;6.97;;;;;;;30.97;100.00;95381.50;5056597;28;20029;-69
2023/07/12 09:46:33;;;;;;;23.05;7.20;;;;;;;31.19;100.00;95384.91;5055992;28;20024;-69
2023/07/12 09:49:17;;;;;;;21.10;6.32;;;;;;;31.34;100.00;95403.88;5055895;28;20596;-69
2023/07/12 09:52:04;;;;;;;18.15;6.68;;;;;;;31.53;100.00;95400.50;5053978;28;20025;-69
2023/07/12 09:54:32;;;;;;;23.52;6.93;;;;;;;31.26;100.00;95412.63;5055116;28;20417;-70
2023/07/12 09:57:17;;;;;;;20.65;6.63;;;;;;;31.28;100.00;95405.00;5056803;28;20539;-69
2023/07/12 09:59:58;;;;;;;18.85;6.47;;;;;;;31.22;100.00;95406.13;5058951;28;20024;-69
2023/07/12 10:02:58;;;;;;;17.60;6.43;;;;;;;31.81;100.00;95404.34;5050578;28;20025;-70
2023/07/12 10:05:23;;;;;;;21.30;6.15;;;;;;;31.80;100.00;95402.75;5049502;28;20394;-70
2023/07/12 10:08:16;;;;;;;18.77;6.45;;;;;;;31.44;100.00;95409.25;5055808;28;20199;-69
2023/07/12 10:11:04;;;;;;;17.83;6.22;;;;;;;31.08;100.00;95412.16;5051734;28;20020;-69
2023/07/12 10:13:49;;;;;;;21.23;6.78;;;;;;;30.85;100.00;95403.59;5051047;28;20025;-69
2023/07/12 10:16:28;;;;;;;16.00;6.22;;;;;;;30.84;100.00;95406.56;5056013;28;20460;-69
2023/07/12 10:18:55;;;;;;;22.05;6.15;;;;;;;30.97;100.00;95407.88;5056529;28;20025;-69
2023/07/12 10:21:24;;;;;;;25.92;6.70;;;;;;;31.69;100.00;95417.50;5055425;28;20485;-70
2023/07/12 10:24:01;;;;;;;17.02;5.95;;;;;;;31.87;100.00;95421.47;5055889;28;20024;-69
2023/07/12 10:26:26;;;;;;;21.17;6.50;;;;;;;31.93;100.00;95433.91;5049834;28;20132;-69
2023/07/12 10:29:01;;;;;;;19.63;6.07;;;;;;;31.72;100.00;95438.69;5054645;28;20501;-70
2023/07/12 10:31:36;;;;;;;19.67;6.55;;;;;;;31.85;100.00;95448.16;5053656;28;20112;-69
2023/07/12 10:34:27;;;;;;;21.13;6.82;;;;;;;31.81;100.00;95449.81;5056294;28;20374;-69
2023/07/12 10:36:54;;;;;;;23.63;7.18;;;;;;;31.68;100.00;95459.41;5054251;28;20513;-69
2023/07/12 10:39:21;;;;;;;20.30;6.95;;;;;;;31.71;100.00;95467.81;5051818;28;20047;-70
2023/07/12 10:41:51;;;;;;;20.80;6.68;;;;;;;31.89;100.00;95454.66;5056078;28;20524;-70
2023/07/12 10:44:32;;;;;;;19.70;6.72;;;;;;;31.63;100.00;95424.09;5059749;28;20017;-70
2023/07/12 10:47:03;;;;;;;23.10;6.32;;;;;;;31.96;100.00;95436.09;5064570;28;20079;-69
2023/07/12 10:49:43;;;;;;;14.93;6.20;;;;;;;32.04;100.00;95439.28;5055735;28;20016;-70
2023/07/12 10:52:11;;;;;;;19.02;6.28;;;;;;;31.94;100.00;95427.38;5057421;28;20103;-70
2023/07/12 10:54:36;;;;;;;25.40;6.90;;;;;;;31.92;100.00;95418.69;5057111;28;20130;-70
2023/07/12 10:57:22;;;;;;;26.60;6.70;;;;;;;31.64;100.00;95423.78;5055803;28;20044;-70
2023/07/12 10:59:58;;;;;;;19.65;5.88;;;;;;;31.63;100.00;95407.78;5055600;28;20033;-70
2023/07/12 11:02:31;;;;;;;23.00;6.65;;;;;;;32.01;100.00;95414.28;5065301;28;20044;-70
2023/07/12 11:04:56;;;;;;;18.05;6.20;;;;;;;32.16;100.00;95431.53;5056703;28;20632;-69
2023/07/12 11:07:22;;;;;;;17.25;7.28;;;;;;;31.77;100.00;95416.91;5055145;28;20099;-70
2023/07/12 11:09:50;;;;;;;23.60;6.00;;;;;;;32.04;100.00;95412.06;5055398;28;20462;-69
2023/07/12 11:12:30;;;;;;;20.00;7.00;;;;;;;32.13;100.00;95413.88;5055400;28;20314;-70
2023/07/12 11:15:14;;;;;;;17.23;6.50;;;;;;;32.03;100.00;95426.78;5056588;28;20037;-69
2023/07/12 11:17:50;;;;;;;11.77;5.68;;;;;;;31.71;100.00;95423.47;5057816;28;20031;-69
2023/07/12 11:20:27;;;;;;;21.90;7.35;;;;;;;31.56;100.00;95413.53;5055345;28;20059;-70
2023/07/12 11:23:30;;;;;;;16.33;6.65;;;;;;;31.61;100.00;95413.47;5054953;28;20100;-70